Time;durP1;ratioP1;P1;durP2;ratioP2;P2;SDS_P1;SDS_P2;PMS_P1;PMS_P2;Temp;Humidity;BMP_temperature;BMP_pressure;BME280_temperature;BME280_humidity;BME280_pressure;Samples;Min_cycle;Max_cycle;Signal;HPM_P1;HPM_P2
2022/03/27 00:00:51;;;;;;;27.20;10.93;;;;;;;;;;4881842;29;20035;-93
2022/03/27 00:03:25;;;;;;;27.58;10.50;;;;;;;;;;4883469;29;20061;-92
2022/03/27 00:05:54;;;;;;;21.60;10.02;;;;;;;;;;4892309;29;20413;-93
2022/03/27 00:08:27;;;;;;;25.08;9.95;;;;;;;;;;4883736;29;20072;-92
2022/03/27 00:13:43;;;;;;;26.23;11.35;;;;;;;;;;4921114;29;20055;-92
2022/03/27 00:16:13;;;;;;;21.65;9.60;;;;;;;;;;4466884;29;15647271;-93
2022/03/27 00:18:43;;;;;;;23.08;10.27;;;;;;;;;;4887515;29;20321;-92
2022/03/27 00:21:13;;;;;;;29.00;11.75;;;;;;;;;;4886566;29;20060;-91
2022/03/27 00:23:40;;;;;;;23.88;10.40;;;;;;;;;;4896031;29;20044;-92
2022/03/27 00:26:09;;;;;;;23.30;11.02;;;;;;;;;;4899546;29;20025;-92
2022/03/27 00:28:36;;;;;;;24.13;10.15;;;;;;;;;;4886043;29;20036;-93
2022/03/27 00:31:25;;;;;;;23.58;10.35;;;;;;;;;;4885891;29;20024;-92
2022/03/27 00:33:57;;;;;;;22.33;10.73;;;;;;;;;;4885245;29;20040;-92
2022/03/27 00:36:24;;;;;;;24.38;10.80;;;;;;;;;;4885465;29;20033;-92
2022/03/27 00:38:53;;;;;;;26.00;10.40;;;;;;;;;;4885291;29;20040;-93
2022/03/27 00:41:19;;;;;;;23.63;10.70;;;;;;;;;;4885323;29;20028;-92
2022/03/27 00:43:48;;;;;;;26.02;10.43;;;;;;;;;;4885322;29;20039;-92
2022/03/27 00:46:14;;;;;;;25.65;9.77;;;;;;;;;;4885246;29;20039;-93
2022/03/27 00:48:44;;;;;;;28.33;10.07;;;;;;;;;;4870387;29;20051;-92
2022/03/27 00:51:14;;;;;;;22.00;9.18;;;;;;;;;;4885461;29;20028;-93
2022/03/27 00:53:43;;;;;;;21.67;10.13;;;;;;;;;;4885341;29;20035;-91
2022/03/27 00:56:11;;;;;;;25.63;10.13;;;;;;;;;;4889036;29;20037;-91
2022/03/27 00:58:58;;;;;;;23.98;9.25;;;;;;;;;;4909300;29;20037;-92
2022/03/27 01:01:31;;;;;;;22.70;9.43;;;;;;;;;;4886305;29;20032;-94
2022/03/27 01:03:58;;;;;;;19.60;9.57;;;;;;;;;;4885840;29;20480;-93
2022/03/27 01:06:26;;;;;;;23.42;10.38;;;;;;;;;;4885661;29;20024;-92
2022/03/27 01:11:37;;;;;;;17.75;9.07;;;;;;;;;;4901995;29;20048;-94
2022/03/27 01:14:04;;;;;;;25.13;9.82;;;;;;;;;;4884957;29;20031;-92
2022/03/27 01:16:47;;;;;;;18.77;9.38;;;;;;;;;;4881781;29;20077;-94
2022/03/27 01:19:16;;;;;;;22.58;9.18;;;;;;;;;;4880851;29;20033;-92
2022/03/27 01:21:44;;;;;;;21.27;9.02;;;;;;;;;;4865998;29;20033;-93
2022/03/27 01:24:10;;;;;;;22.42;9.40;;;;;;;;;;4866245;29;20068;-93
2022/03/27 01:26:37;;;;;;;18.67;9.38;;;;;;;;;;4882150;29;20483;-92
2022/03/27 01:29:04;;;;;;;18.77;8.73;;;;;;;;;;4881892;29;20029;-93
2022/03/27 01:31:31;;;;;;;15.57;8.10;;;;;;;;;;4881018;29;20029;-94
2022/03/27 01:33:57;;;;;;;13.98;8.05;;;;;;;;;;4881208;29;20040;-93
2022/03/27 01:36:34;;;;;;;18.77;8.02;;;;;;;;;;4882372;29;20052;-93
2022/03/27 01:39:01;;;;;;;16.38;7.95;;;;;;;;;;4881681;29;20067;-94
2022/03/27 01:41:27;;;;;;;14.20;8.00;;;;;;;;;;4866801;29;20543;-92
2022/03/27 01:43:56;;;;;;;17.13;8.10;;;;;;;;;;4881988;29;20040;-92
2022/03/27 01:46:23;;;;;;;16.00;7.93;;;;;;;;;;4882695;29;20061;-92
2022/03/27 01:48:52;;;;;;;16.08;8.18;;;;;;;;;;4887925;29;20017;-92
2022/03/27 01:51:18;;;;;;;14.20;7.55;;;;;;;;;;4899029;29;20021;-93
2022/03/27 01:53:45;;;;;;;13.80;7.38;;;;;;;;;;4900609;29;20033;-92
2022/03/27 01:56:13;;;;;;;15.00;7.55;;;;;;;;;;4883235;29;20037;-93
2022/03/27 01:58:40;;;;;;;14.20;7.30;;;;;;;;;;4891262;29;20033;-92
2022/03/27 02:01:10;;;;;;;13.63;7.47;;;;;;;;;;4880418;29;20056;-94
2022/03/27 02:03:36;;;;;;;14.45;7.80;;;;;;;;;;4865549;29;20028;-91
2022/03/27 02:06:08;;;;;;;12.15;6.95;;;;;;;;;;4880974;29;20029;-94
2022/03/27 02:08:34;;;;;;;12.68;6.55;;;;;;;;;;4881195;29;20025;-92
2022/03/27 02:11:01;;;;;;;13.57;7.32;;;;;;;;;;4888766;29;20079;-92
2022/03/27 02:13:27;;;;;;;12.27;7.28;;;;;;;;;;4883424;29;20052;-92
2022/03/27 02:15:58;;;;;;;15.25;7.00;;;;;;;;;;4881611;29;20029;-94
2022/03/27 02:18:31;;;;;;;14.48;7.43;;;;;;;;;;4880804;29;20045;-92
2022/03/27 02:21:03;;;;;;;12.68;6.78;;;;;;;;;;4880286;29;20036;-92
2022/03/27 02:23:38;;;;;;;11.68;6.65;;;;;;;;;;4880456;29;20099;-94
2022/03/27 02:26:05;;;;;;;10.13;5.93;;;;;;;;;;4880930;29;20032;-94
2022/03/27 02:28:32;;;;;;;12.93;6.20;;;;;;;;;;4880694;29;20044;-92
2022/03/27 02:30:58;;;;;;;11.95;6.18;;;;;;;;;;4880226;29;20033;-92
2022/03/27 02:33:25;;;;;;;11.77;6.20;;;;;;;;;;4880051;29;20029;-94
2022/03/27 02:35:51;;;;;;;12.45;5.75;;;;;;;;;;4880048;29;20059;-93
2022/03/27 02:38:17;;;;;;;10.65;5.72;;;;;;;;;;4880180;29;20052;-93
2022/03/27 02:40:44;;;;;;;10.85;5.20;;;;;;;;;;4880350;29;20031;-93
2022/03/27 02:43:10;;;;;;;10.57;5.53;;;;;;;;;;4880865;29;20044;-91
2022/03/27 02:45:37;;;;;;;13.48;4.55;;;;;;;;;;4880845;29;20029;-92
2022/03/27 02:48:03;;;;;;;7.32;3.63;;;;;;;;;;4880855;29;20021;-93
2022/03/27 02:50:30;;;;;;;7.82;4.05;;;;;;;;;;4880761;29;20032;-91
2022/03/27 02:52:57;;;;;;;7.80;4.35;;;;;;;;;;4880603;29;20037;-93
2022/03/27 02:55:24;;;;;;;9.23;4.15;;;;;;;;;;4880873;29;20033;-92
2022/03/27 02:57:50;;;;;;;7.40;3.88;;;;;;;;;;4884946;29;20045;-92
2022/03/27 03:00:17;;;;;;;9.30;4.45;;;;;;;;;;4898230;29;20127;-91
2022/03/27 03:02:43;;;;;;;8.30;4.50;;;;;;;;;;4880554;29;20043;-91
2022/03/27 03:05:10;;;;;;;10.13;4.30;;;;;;;;;;4880176;29;20036;-91
2022/03/27 03:07:41;;;;;;;8.88;4.40;;;;;;;;;;4880790;29;20032;-90
2022/03/27 03:10:07;;;;;;;9.20;4.32;;;;;;;;;;4880294;29;20025;-92
2022/03/27 03:12:34;;;;;;;10.77;4.70;;;;;;;;;;4880034;29;20037;-90
2022/03/27 03:15:00;;;;;;;8.15;4.00;;;;;;;;;;4880068;29;20111;-92
2022/03/27 03:17:29;;;;;;;8.32;4.03;;;;;;;;;;4879998;29;20410;-92
2022/03/27 03:19:55;;;;;;;10.77;4.32;;;;;;;;;;4880927;29;20112;-92
2022/03/27 03:22:21;;;;;;;9.50;4.47;;;;;;;;;;4880722;29;20502;-92
2022/03/27 03:24:47;;;;;;;8.40;4.10;;;;;;;;;;4881997;29;20025;-91
2022/03/27 03:27:14;;;;;;;8.95;4.35;;;;;;;;;;4876188;29;20032;-90
2022/03/27 03:29:40;;;;;;;11.55;5.07;;;;;;;;;;4901833;29;20056;-91
2022/03/27 03:32:06;;;;;;;10.38;5.03;;;;;;;;;;4895717;29;20059;-92
2022/03/27 03:34:32;;;;;;;10.27;4.50;;;;;;;;;;4879401;29;20030;-90
2022/03/27 03:36:59;;;;;;;9.02;4.50;;;;;;;;;;4880504;29;20037;-92
2022/03/27 03:39:25;;;;;;;11.15;4.95;;;;;;;;;;4882399;29;20041;-91
2022/03/27 03:41:51;;;;;;;9.80;4.15;;;;;;;;;;4880316;29;20056;-93
2022/03/27 03:44:18;;;;;;;9.15;4.95;;;;;;;;;;4879869;29;20063;-91
2022/03/27 03:46:46;;;;;;;9.27;4.82;;;;;;;;;;4880008;29;20036;-91
2022/03/27 03:49:16;;;;;;;8.20;4.13;;;;;;;;;;4879671;29;20482;-93
2022/03/27 03:51:42;;;;;;;8.43;4.13;;;;;;;;;;4881115;29;20592;-91
2022/03/27 03:54:11;;;;;;;10.35;4.43;;;;;;;;;;4889417;29;20097;-92
2022/03/27 03:56:40;;;;;;;9.38;4.30;;;;;;;;;;4883938;29;20061;-92
2022/03/27 03:59:06;;;;;;;8.30;4.63;;;;;;;;;;4883495;29;20028;-92
2022/03/27 04:01:32;;;;;;;9.85;4.30;;;;;;;;;;4884062;29;20494;-92
2022/03/27 04:03:58;;;;;;;9.00;4.72;;;;;;;;;;4892660;29;20439;-91
2022/03/27 04:06:25;;;;;;;7.65;4.00;;;;;;;;;;4888611;29;20079;-92
2022/03/27 04:08:51;;;;;;;9.00;3.70;;;;;;;;;;4883593;29;20033;-92
2022/03/27 04:11:17;;;;;;;7.22;3.90;;;;;;;;;;4883697;29;20040;-93
2022/03/27 04:13:46;;;;;;;8.20;4.60;;;;;;;;;;4869156;29;20106;-93
2022/03/27 04:16:13;;;;;;;9.05;4.40;;;;;;;;;;4884931;29;20116;-92
2022/03/27 04:18:39;;;;;;;12.25;5.07;;;;;;;;;;4888027;29;20375;-92
2022/03/27 04:21:06;;;;;;;9.93;4.25;;;;;;;;;;4887651;29;20020;-92
2022/03/27 04:23:32;;;;;;;10.68;4.72;;;;;;;;;;4886733;29;20040;-91
2022/03/27 04:25:58;;;;;;;10.77;5.38;;;;;;;;;;4886349;29;20153;-92
2022/03/27 04:28:24;;;;;;;12.27;5.25;;;;;;;;;;4886678;29;20029;-93
2022/03/27 04:30:51;;;;;;;17.92;5.57;;;;;;;;;;4890187;29;20032;-91
2022/03/27 04:33:20;;;;;;;9.40;4.90;;;;;;;;;;4895139;29;20032;-90
2022/03/27 04:35:46;;;;;;;9.85;4.85;;;;;;;;;;4887526;29;20090;-93
2022/03/27 04:38:13;;;;;;;11.52;5.85;;;;;;;;;;4885964;29;20041;-91
2022/03/27 04:40:39;;;;;;;17.75;6.55;;;;;;;;;;4885770;29;20017;-91
2022/03/27 04:43:05;;;;;;;11.93;5.80;;;;;;;;;;4886071;29;20481;-90
2022/03/27 04:45:32;;;;;;;11.55;5.88;;;;;;;;;;4886953;29;20035;-92
2022/03/27 04:47:58;;;;;;;11.10;6.05;;;;;;;;;;4886788;29;20115;-93
2022/03/27 04:50:24;;;;;;;13.70;6.47;;;;;;;;;;4886302;29;20029;-91
2022/03/27 04:52:50;;;;;;;15.10;7.60;;;;;;;;;;4885673;29;20024;-92
2022/03/27 04:55:17;;;;;;;12.23;6.43;;;;;;;;;;4885814;29;20043;-92
2022/03/27 04:57:43;;;;;;;11.35;6.18;;;;;;;;;;4885436;29;20064;-91
2022/03/27 05:00:10;;;;;;;11.35;6.18;;;;;;;;;;4885515;29;20029;-90
2022/03/27 05:02:38;;;;;;;12.25;6.25;;;;;;;;;;4885483;29;20033;-91
2022/03/27 05:05:05;;;;;;;12.13;5.90;;;;;;;;;;4887959;29;20474;-91
2022/03/27 05:07:48;;;;;;;10.65;5.57;;;;;;;;;;4899014;29;20052;-92
2022/03/27 05:10:17;;;;;;;10.40;5.63;;;;;;;;;;4902071;29;20021;-90
2022/03/27 05:12:47;;;;;;;10.70;5.80;;;;;;;;;;4885182;29;20040;-91
2022/03/27 05:15:17;;;;;;;9.40;5.28;;;;;;;;;;4902381;29;20489;-91
2022/03/27 05:17:47;;;;;;;13.07;6.20;;;;;;;;;;4885801;29;20060;-91
2022/03/27 05:20:13;;;;;;;15.85;6.57;;;;;;;;;;4885807;29;20039;-91
2022/03/27 05:22:41;;;;;;;11.15;5.80;;;;;;;;;;4885938;29;20486;-92
2022/03/27 05:25:07;;;;;;;9.88;5.68;;;;;;;;;;4885654;29;20025;-92
2022/03/27 05:27:33;;;;;;;10.55;6.22;;;;;;;;;;4885757;29;20033;-92
2022/03/27 05:30:00;;;;;;;10.90;5.32;;;;;;;;;;4885870;29;20029;-89
2022/03/27 05:32:26;;;;;;;10.10;5.60;;;;;;;;;;4892287;29;20036;-92
2022/03/27 05:34:53;;;;;;;11.13;5.80;;;;;;;;;;4901624;29;20028;-91
2022/03/27 05:37:19;;;;;;;10.05;5.13;;;;;;;;;;4884648;29;20036;-91
2022/03/27 05:39:45;;;;;;;8.80;4.97;;;;;;;;;;4885013;29;20119;-92
2022/03/27 05:42:13;;;;;;;9.20;4.78;;;;;;;;;;4887452;29;20033;-94
2022/03/27 05:44:42;;;;;;;8.38;4.65;;;;;;;;;;4870430;29;20029;-93
2022/03/27 05:47:10;;;;;;;8.30;4.30;;;;;;;;;;4885597;29;20486;-91
2022/03/27 05:49:43;;;;;;;8.77;4.30;;;;;;;;;;4900374;29;20402;-92
2022/03/27 05:52:14;;;;;;;7.10;3.07;;;;;;;;;;4889959;29;20060;-93
2022/03/27 05:54:43;;;;;;;6.53;3.08;;;;;;;;;;4884693;29;20308;-93
2022/03/27 05:57:14;;;;;;;12.60;3.28;;;;;;;;;;4896594;29;20044;-91
2022/03/27 05:59:46;;;;;;;7.45;3.20;;;;;;;;;;4886675;29;20032;-92
2022/03/27 06:02:27;;;;;;;7.97;3.80;;;;;;;;;;4884478;29;20513;-90
2022/03/27 06:04:53;;;;;;;11.10;4.28;;;;;;;;;;4889530;29;20036;-90
2022/03/27 06:07:28;;;;;;;11.00;4.65;;;;;;;;;;4883974;29;20025;-89
2022/03/27 06:09:54;;;;;;;9.45;4.32;;;;;;;;;;4904834;29;20542;-91
2022/03/27 06:12:24;;;;;;;7.15;4.05;;;;;;;;;;4885302;29;20537;-93
2022/03/27 06:14:56;;;;;;;8.23;4.03;;;;;;;;;;4885596;29;20033;-93
2022/03/27 06:17:56;;;;;;;7.70;3.63;;;;;;;;;;4881295;29;20068;-95
2022/03/27 06:20:34;;;;;;;12.35;3.97;;;;;;;;;;4873719;29;20394;-96
2022/03/27 06:23:06;;;;;;;7.90;4.55;;;;;;;;;;4884136;29;20120;-95
2022/03/27 06:25:38;;;;;;;14.27;4.38;;;;;;;;;;4884582;29;20040;-95
2022/03/27 06:51:35;;;;;;;9.65;4.43;;;;;;;;;;4900946;29;20410;-95
2022/03/27 06:54:01;;;;;;;9.32;4.72;;;;;;;;;;4905531;29;20033;-92
2022/03/27 06:56:27;;;;;;;8.15;5.10;;;;;;;;;;4899465;29;20044;-90
2022/03/27 06:58:54;;;;;;;8.25;4.60;;;;;;;;;;4898702;29;20064;-90
2022/03/27 07:04:22;;;;;;;8.60;4.90;;;;;;;;;;4842291;29;20037;-94
2022/03/27 07:06:48;;;;;;;9.23;4.25;;;;;;;;;;4874998;29;20033;-88
2022/03/27 07:09:14;;;;;;;8.25;4.30;;;;;;;;;;4883146;29;20032;-92
2022/03/27 07:11:51;;;;;;;8.65;4.22;;;;;;;;;;4884851;29;20025;-92
2022/03/27 07:14:17;;;;;;;8.90;4.18;;;;;;;;;;4886737;29;20031;-91
2022/03/27 07:17:08;;;;;;;7.00;4.40;;;;;;;;;;4941310;23;20080;-95
2022/03/27 07:20:05;;;;;;;9.88;3.50;;;;;;;;;;4842834;29;20022;-91
2022/03/27 07:22:31;;;;;;;8.48;4.05;;;;;;;;;;4830443;29;20038;-89
2022/03/27 07:24:57;;;;;;;7.13;4.03;;;;;;;;;;4821888;29;20035;-89
2022/03/27 07:27:23;;;;;;;6.13;3.67;;;;;;;;;;4812610;29;20034;-93
2022/03/27 07:29:49;;;;;;;6.97;3.38;;;;;;;;;;4831258;29;20022;-92
2022/03/27 07:32:16;;;;;;;8.00;4.00;;;;;;;;;;4904243;29;20056;-92
2022/03/27 07:34:42;;;;;;;6.20;3.47;;;;;;;;;;4910137;29;20099;-91
2022/03/27 07:37:08;;;;;;;5.85;3.28;;;;;;;;;;4905154;29;20033;-91
2022/03/27 07:39:35;;;;;;;7.88;3.67;;;;;;;;;;4906153;29;20036;-91
2022/03/27 07:42:01;;;;;;;7.80;3.75;;;;;;;;;;4906080;29;20032;-92
2022/03/27 07:44:28;;;;;;;6.60;3.47;;;;;;;;;;4906711;29;20028;-91
2022/03/27 07:46:58;;;;;;;7.35;3.67;;;;;;;;;;4918311;29;20512;-93
2022/03/27 07:49:25;;;;;;;7.90;3.00;;;;;;;;;;4906687;29;20032;-91
2022/03/27 07:51:51;;;;;;;7.50;3.40;;;;;;;;;;4906845;29;20028;-92
2022/03/27 07:54:17;;;;;;;9.75;3.70;;;;;;;;;;4906372;29;20071;-91
2022/03/27 07:56:44;;;;;;;6.53;3.63;;;;;;;;;;4906375;29;20044;-91
2022/03/27 07:59:11;;;;;;;8.50;3.15;;;;;;;;;;4922906;29;20434;-92
2022/03/27 08:01:37;;;;;;;6.32;3.22;;;;;;;;;;4905984;29;20040;-92
2022/03/27 08:04:05;;;;;;;7.97;3.53;;;;;;;;;;4905807;29;20092;-92
2022/03/27 08:06:36;;;;;;;6.68;3.15;;;;;;;;;;4908402;29;20028;-91
2022/03/27 08:09:03;;;;;;;7.68;3.80;;;;;;;;;;4921129;29;20024;-91
2022/03/27 08:11:30;;;;;;;10.57;3.45;;;;;;;;;;4907210;29;20036;-91
2022/03/27 08:13:56;;;;;;;4.97;2.60;;;;;;;;;;4905588;29;20091;-92
2022/03/27 08:16:22;;;;;;;6.13;3.38;;;;;;;;;;4905267;29;20028;-92
2022/03/27 08:18:48;;;;;;;5.80;3.10;;;;;;;;;;4906291;29;20024;-92
2022/03/27 08:21:14;;;;;;;5.72;3.10;;;;;;;;;;4907190;29;20487;-92
2022/03/27 08:23:41;;;;;;;6.68;3.22;;;;;;;;;;4917537;29;20012;-91
2022/03/27 08:28:52;;;;;;;5.90;3.50;;;;;;;;;;4897918;29;20033;-89
2022/03/27 08:31:18;;;;;;;6.22;3.05;;;;;;;;;;4888361;29;20032;-89
2022/03/27 08:33:46;;;;;;;8.88;3.10;;;;;;;;;;4883591;29;20025;-91
2022/03/27 08:36:13;;;;;;;6.78;3.38;;;;;;;;;;4883275;29;20033;-91
2022/03/27 08:38:39;;;;;;;6.00;2.55;;;;;;;;;;4883493;29;20033;-90
2022/03/27 08:41:05;;;;;;;6.68;3.17;;;;;;;;;;4883607;29;20029;-91
2022/03/27 08:43:33;;;;;;;5.53;2.90;;;;;;;;;;4883005;29;20029;-90
2022/03/27 08:45:59;;;;;;;5.30;2.80;;;;;;;;;;4883506;29;20029;-92
2022/03/27 08:48:30;;;;;;;4.65;2.75;;;;;;;;;;4884073;29;20091;-90
2022/03/27 08:51:06;;;;;;;5.25;2.50;;;;;;;;;;4883630;29;20037;-91
2022/03/27 08:53:38;;;;;;;5.22;2.55;;;;;;;;;;4883387;29;20084;-90
2022/03/27 08:56:08;;;;;;;5.13;2.30;;;;;;;;;;4883969;29;20037;-91
2022/03/27 08:58:39;;;;;;;5.93;2.30;;;;;;;;;;4883140;29;20037;-91
2022/03/27 09:01:06;;;;;;;5.22;2.13;;;;;;;;;;4882917;29;20029;-90
2022/03/27 09:03:33;;;;;;;4.45;2.00;;;;;;;;;;4882977;29;20037;-92
2022/03/27 09:06:01;;;;;;;5.80;2.35;;;;;;;;;;4883300;29;20040;-91
2022/03/27 09:08:29;;;;;;;6.55;2.60;;;;;;;;;;4882654;29;20025;-94
2022/03/27 09:11:11;;;;;;;8.20;2.30;;;;;;;;;;4885392;29;20029;-90
2022/03/27 09:13:38;;;;;;;5.95;2.33;;;;;;;;;;4884959;29;20041;-91
2022/03/27 09:16:05;;;;;;;4.47;2.40;;;;;;;;;;4885301;29;20037;-89
2022/03/27 09:19:06;;;;;;;6.35;2.20;;;;;;;;;;4885990;29;20053;-93
2022/03/27 09:21:32;;;;;;;4.88;2.17;;;;;;;;;;4854061;29;20491;-92
2022/03/27 09:23:59;;;;;;;4.20;2.20;;;;;;;;;;4883765;29;20029;-89
2022/03/27 09:26:26;;;;;;;4.75;2.38;;;;;;;;;;4885529;29;20040;-93
2022/03/27 09:28:56;;;;;;;5.47;2.22;;;;;;;;;;4883308;29;20029;-93
2022/03/27 09:31:26;;;;;;;5.85;2.10;;;;;;;;;;4884715;29;20040;-92
2022/03/27 09:34:00;;;;;;;3.85;2.17;;;;;;;;;;4884176;29;20122;-95
2022/03/27 09:36:33;;;;;;;4.72;1.98;;;;;;;;;;4881999;29;20033;-92
2022/03/27 09:39:11;;;;;;;3.05;1.75;;;;;;;;;;4883924;29;20032;-93
2022/03/27 09:41:43;;;;;;;4.20;1.65;;;;;;;;;;4889557;29;20028;-94
2022/03/27 09:44:14;;;;;;;5.10;2.28;;;;;;;;;;4884153;29;20181;-95
2022/03/27 09:47:00;;;;;;;5.47;2.25;;;;;;;;;;4881927;29;20029;-90
2022/03/27 09:49:32;;;;;;;3.95;2.40;;;;;;;;;;4882159;29;20029;-91
2022/03/27 09:52:00;;;;;;;4.40;2.30;;;;;;;;;;4882218;29;20036;-90
2022/03/27 09:54:27;;;;;;;4.38;2.63;;;;;;;;;;4883055;29;20037;-91
2022/03/27 09:56:54;;;;;;;4.20;2.05;;;;;;;;;;4884198;29;20032;-92
2022/03/27 09:59:26;;;;;;;4.22;2.20;;;;;;;;;;4884569;29;20033;-93
2022/03/27 10:01:52;;;;;;;3.15;1.60;;;;;;;;;;4901493;29;20029;-93
2022/03/27 10:04:18;;;;;;;3.85;1.88;;;;;;;;;;4890282;29;20199;-92
2022/03/27 10:06:45;;;;;;;4.15;2.00;;;;;;;;;;4882850;29;20052;-91
2022/03/27 10:09:14;;;;;;;5.63;2.10;;;;;;;;;;4891652;29;20049;-92
2022/03/27 10:11:41;;;;;;;3.17;2.03;;;;;;;;;;4884210;29;20060;-92
2022/03/27 10:14:08;;;;;;;3.90;1.80;;;;;;;;;;4881552;29;20130;-92
2022/03/27 10:16:36;;;;;;;3.28;1.65;;;;;;;;;;4881823;29;20138;-92
2022/03/27 10:19:07;;;;;;;3.63;1.85;;;;;;;;;;4882696;29;20081;-92
2022/03/27 10:24:39;;;;;;;3.35;1.75;;;;;;;;;;4883224;29;20122;-91
2022/03/27 10:27:06;;;;;;;3.17;1.67;;;;;;;;;;4876236;29;20550;-91
2022/03/27 10:29:32;;;;;;;5.40;1.75;;;;;;;;;;4862197;29;20022;-91
2022/03/27 10:32:04;;;;;;;4.45;2.03;;;;;;;;;;4862957;29;20034;-90
2022/03/27 10:34:33;;;;;;;3.08;1.92;;;;;;;;;;4862714;29;20037;-89
2022/03/27 10:36:59;;;;;;;5.20;1.90;;;;;;;;;;4862565;29;20041;-89
2022/03/27 10:39:29;;;;;;;4.40;2.05;;;;;;;;;;4863887;29;20108;-93
2022/03/27 10:42:11;;;;;;;3.28;1.70;;;;;;;;;;4866095;29;20464;-96
2022/03/27 10:44:59;;;;;;;5.50;2.13;;;;;;;;;;4870765;29;20038;-91
2022/03/27 10:47:30;;;;;;;5.03;1.95;;;;;;;;;;4872396;29;20029;-90
2022/03/27 10:50:04;;;;;;;4.00;2.20;;;;;;;;;;4864360;29;20485;-89
2022/03/27 10:52:36;;;;;;;4.55;2.10;;;;;;;;;;4863415;29;20041;-94
2022/03/27 10:55:13;;;;;;;4.03;1.88;;;;;;;;;;4863734;29;20494;-90
2022/03/27 10:57:40;;;;;;;5.63;2.08;;;;;;;;;;4861998;29;20037;-92
2022/03/27 11:00:07;;;;;;;2.97;1.50;;;;;;;;;;4862615;29;20056;-93
2022/03/27 11:02:56;;;;;;;2.67;1.50;;;;;;;;;;4863946;29;20030;-92
2022/03/27 11:05:36;;;;;;;6.45;1.75;;;;;;;;;;4865832;29;20494;-91
2022/03/27 11:08:29;;;;;;;4.78;2.03;;;;;;;;;;4865445;29;20033;-91
2022/03/27 11:10:59;;;;;;;5.43;2.40;;;;;;;;;;4843343;29;20045;-92
2022/03/27 11:13:25;;;;;;;5.30;1.90;;;;;;;;;;4862816;29;20036;-91
2022/03/27 11:16:08;;;;;;;5.68;2.45;;;;;;;;;;4863147;29;20117;-89
2022/03/27 11:18:41;;;;;;;5.93;2.13;;;;;;;;;;4863357;29;20045;-88
2022/03/27 11:21:10;;;;;;;4.85;2.30;;;;;;;;;;4863494;29;20147;-87
2022/03/27 11:23:40;;;;;;;5.15;2.22;;;;;;;;;;4862877;29;20038;-93
2022/03/27 11:26:30;;;;;;;3.47;1.77;;;;;;;;;;4865118;29;20049;-90
2022/03/27 11:28:59;;;;;;;4.15;2.10;;;;;;;;;;4858181;29;20064;-93
2022/03/27 11:31:30;;;;;;;4.38;2.17;;;;;;;;;;4863987;29;20053;-93
2022/03/27 11:34:07;;;;;;;3.60;1.88;;;;;;;;;;4864681;29;20141;-90
2022/03/27 11:36:34;;;;;;;3.42;1.88;;;;;;;;;;4863875;29;20098;-92
2022/03/27 11:39:08;;;;;;;4.22;2.15;;;;;;;;;;4875459;29;20038;-92
2022/03/27 11:41:37;;;;;;;4.78;1.75;;;;;;;;;;4882025;29;20067;-90
2022/03/27 11:45:06;;;;;;;5.32;2.00;;;;;;;;;;4886754;29;20025;-85
2022/03/27 11:47:16;;;;;;;4.25;1.60;;;;;;;;;;4880177;29;20132;-88
2022/03/27 11:49:44;;;;;;;4.15;1.60;;;;;;;;;;4884060;29;20382;-92
2022/03/27 11:52:14;;;;;;;4.45;2.08;;;;;;;;;;4880282;29;20029;-91
2022/03/27 11:54:40;;;;;;;3.83;2.08;;;;;;;;;;4880270;29;20105;-90
2022/03/27 11:57:07;;;;;;;5.75;1.80;;;;;;;;;;4880637;29;20037;-90
2022/03/27 12:00:03;;;;;;;4.55;2.28;;;;;;;;;;4878593;29;20574;-88
2022/03/27 12:02:40;;;;;;;6.53;2.53;;;;;;;;;;4849519;29;20037;-89
2022/03/27 12:05:12;;;;;;;3.60;1.80;;;;;;;;;;4869260;29;20061;-91
2022/03/27 12:07:57;;;;;;;6.20;2.03;;;;;;;;;;4879848;29;20033;-88
2022/03/27 12:10:24;;;;;;;4.97;2.60;;;;;;;;;;4879688;29;20044;-87
2022/03/27 12:13:04;;;;;;;4.22;1.95;;;;;;;;;;4879654;29;20029;-90
2022/03/27 12:15:41;;;;;;;6.22;2.05;;;;;;;;;;4882364;29;20040;-86
2022/03/27 12:18:07;;;;;;;5.40;1.90;;;;;;;;;;4882753;29;20048;-91
2022/03/27 12:20:40;;;;;;;6.18;2.22;;;;;;;;;;4874471;29;20026;-90
2022/03/27 12:23:17;;;;;;;6.20;2.20;;;;;;;;;;4864340;29;20045;-91
2022/03/27 12:25:43;;;;;;;6.03;2.53;;;;;;;;;;4874326;29;20033;-91
2022/03/27 12:30:54;;;;;;;4.15;1.80;;;;;;;;;;4884225;29;20060;-89
2022/03/27 12:33:21;;;;;;;3.83;1.77;;;;;;;;;;4870331;29;20073;-89
2022/03/27 12:35:47;;;;;;;6.38;2.03;;;;;;;;;;4872590;29;20043;-85
2022/03/27 12:38:14;;;;;;;3.67;1.90;;;;;;;;;;4881576;29;20101;-90
2022/03/27 12:40:44;;;;;;;4.95;1.98;;;;;;;;;;4867459;29;20502;-82
2022/03/27 12:43:11;;;;;;;4.55;1.88;;;;;;;;;;4863831;29;20033;-84
2022/03/27 12:45:40;;;;;;;2.95;1.65;;;;;;;;;;4861365;29;20025;-82
2022/03/27 12:48:09;;;;;;;4.47;1.48;;;;;;;;;;4862428;29;20038;-81
2022/03/27 12:50:36;;;;;;;5.30;1.67;;;;;;;;;;4862993;29;20021;-83
2022/03/27 12:53:21;;;;;;;4.72;1.80;;;;;;;;;;4862756;29;20033;-84
2022/03/27 12:55:48;;;;;;;4.10;1.92;;;;;;;;;;4866956;29;20024;-84
2022/03/27 12:58:18;;;;;;;4.65;1.90;;;;;;;;;;4868593;29;20053;-85
2022/03/27 13:00:45;;;;;;;4.38;2.35;;;;;;;;;;4862890;29;20025;-85
2022/03/27 13:03:18;;;;;;;5.18;1.60;;;;;;;;;;4864919;29;20105;-91
2022/03/27 13:05:56;;;;;;;4.72;1.42;;;;;;;;;;4863905;29;20616;-87
2022/03/27 13:08:34;;;;;;;3.58;1.75;;;;;;;;;;4863507;29;20491;-86
2022/03/27 13:11:01;;;;;;;5.72;1.92;;;;;;;;;;4865655;29;20144;-87
2022/03/27 13:13:37;;;;;;;4.47;1.65;;;;;;;;;;4864534;29;20070;-86
2022/03/27 13:16:23;;;;;;;4.70;2.17;;;;;;;;;;4864137;29;20058;-84
2022/03/27 13:19:03;;;;;;;3.17;1.83;;;;;;;;;;4866428;29;20052;-86
2022/03/27 13:21:39;;;;;;;10.80;2.05;;;;;;;;;;4869151;29;20044;-86
2022/03/27 13:24:06;;;;;;;6.18;2.50;;;;;;;;;;4875101;29;20039;-87
2022/03/27 13:26:40;;;;;;;4.35;2.25;;;;;;;;;;4865153;29;20057;-88
2022/03/27 13:31:45;;;;;;;3.15;1.63;;;;;;;;;;4900479;29;20060;-87
2022/03/27 13:34:14;;;;;;;5.65;2.15;;;;;;;;;;4887063;29;20052;-89
2022/03/27 13:36:43;;;;;;;5.07;1.50;;;;;;;;;;4886784;29;20115;-87
2022/03/27 13:39:10;;;;;;;4.22;1.70;;;;;;;;;;4887452;29;20040;-87
2022/03/27 13:44:22;;;;;;;4.50;2.05;;;;;;;;;;4901638;29;20153;-85
2022/03/27 13:46:49;;;;;;;3.53;1.70;;;;;;;;;;4885449;29;20124;-86
2022/03/27 13:49:16;;;;;;;4.80;2.50;;;;;;;;;;4885190;29;20057;-85
2022/03/27 13:51:43;;;;;;;4.95;2.10;;;;;;;;;;4884224;29;20021;-83
2022/03/27 13:54:09;;;;;;;5.80;1.75;;;;;;;;;;4900644;29;20040;-84
2022/03/27 13:56:40;;;;;;;6.63;2.03;;;;;;;;;;4884218;29;20029;-87
2022/03/27 13:59:07;;;;;;;3.10;1.52;;;;;;;;;;4884525;29;20060;-86
2022/03/27 14:01:37;;;;;;;5.93;1.90;;;;;;;;;;4884985;29;20032;-88
2022/03/27 14:04:04;;;;;;;5.82;2.03;;;;;;;;;;4884840;29;20542;-89
2022/03/27 14:06:31;;;;;;;5.82;1.98;;;;;;;;;;4874364;29;20075;-87
2022/03/27 14:08:57;;;;;;;3.58;1.58;;;;;;;;;;4881486;29;20021;-90
2022/03/27 14:11:24;;;;;;;5.10;1.70;;;;;;;;;;4881539;29;20039;-87
2022/03/27 14:13:50;;;;;;;4.97;2.17;;;;;;;;;;4881359;29;20072;-88
2022/03/27 14:16:19;;;;;;;5.97;1.70;;;;;;;;;;4884347;29;20044;-86
2022/03/27 14:18:45;;;;;;;4.80;1.73;;;;;;;;;;4885096;29;20136;-88
2022/03/27 14:21:13;;;;;;;6.68;2.03;;;;;;;;;;4884046;29;20553;-87
2022/03/27 14:23:39;;;;;;;3.67;1.90;;;;;;;;;;4872478;29;20127;-87
2022/03/27 14:26:06;;;;;;;3.20;1.73;;;;;;;;;;4884105;29;20474;-89
2022/03/27 14:28:36;;;;;;;5.13;1.90;;;;;;;;;;4884658;29;20487;-89
2022/03/27 14:31:02;;;;;;;3.90;1.88;;;;;;;;;;4887689;29;20055;-88
2022/03/27 14:33:32;;;;;;;4.57;1.90;;;;;;;;;;4885036;29;20025;-88
2022/03/27 14:35:58;;;;;;;5.28;1.83;;;;;;;;;;4883719;29;20029;-85
2022/03/27 14:38:25;;;;;;;4.07;1.80;;;;;;;;;;4883268;29;20068;-85
2022/03/27 14:40:51;;;;;;;5.80;2.08;;;;;;;;;;4878483;29;20032;-87
2022/03/27 14:43:18;;;;;;;4.38;1.50;;;;;;;;;;4885547;29;20454;-89
2022/03/27 14:45:44;;;;;;;4.50;1.30;;;;;;;;;;4868686;29;20394;-91
2022/03/27 14:48:11;;;;;;;3.17;1.38;;;;;;;;;;4884942;29;20382;-89
2022/03/27 14:50:37;;;;;;;3.83;1.55;;;;;;;;;;4887862;29;20033;-87
2022/03/27 14:53:03;;;;;;;5.50;1.83;;;;;;;;;;4887292;29;20028;-92
2022/03/27 14:58:18;;;;;;;6.35;1.85;;;;;;;;;;4903582;29;20533;-90
2022/03/27 15:00:44;;;;;;;3.50;1.48;;;;;;;;;;4892587;29;20039;-90
2022/03/27 15:03:11;;;;;;;2.85;1.20;;;;;;;;;;4900262;29;20033;-88
2022/03/27 15:05:38;;;;;;;3.30;1.60;;;;;;;;;;4887972;29;20029;-88
2022/03/27 15:08:10;;;;;;;6.15;1.65;;;;;;;;;;4901662;29;20033;-90
2022/03/27 15:10:42;;;;;;;3.60;1.50;;;;;;;;;;4884044;29;20386;-91
2022/03/27 15:13:30;;;;;;;4.18;2.00;;;;;;;;;;4879723;29;20033;-91
2022/03/27 15:15:59;;;;;;;4.72;2.00;;;;;;;;;;4884894;29;20032;-94
2022/03/27 15:18:27;;;;;;;3.25;1.60;;;;;;;;;;4885485;29;20051;-89
2022/03/27 15:20:53;;;;;;;4.60;1.60;;;;;;;;;;4882281;29;20029;-89
2022/03/27 15:23:19;;;;;;;4.80;1.60;;;;;;;;;;4881954;29;20061;-90
2022/03/27 15:25:45;;;;;;;4.57;1.33;;;;;;;;;;4885977;29;20032;-89
2022/03/27 15:28:14;;;;;;;7.25;1.90;;;;;;;;;;4891227;29;20036;-94
2022/03/27 15:30:40;;;;;;;3.78;1.67;;;;;;;;;;4887311;29;20053;-89
2022/03/27 15:33:06;;;;;;;5.32;2.00;;;;;;;;;;4881851;29;20029;-89
2022/03/27 15:35:32;;;;;;;4.60;1.88;;;;;;;;;;4882387;29;20025;-90
2022/03/27 15:38:00;;;;;;;6.75;1.98;;;;;;;;;;4883914;29;20053;-90
2022/03/27 15:40:28;;;;;;;3.28;1.60;;;;;;;;;;4882235;29;20028;-92